sensor_id;sensor_type;location;lat;lon;timestamp;temperature;humidity
70214;DHT22;60138;55.808;37.078;2023-04-04T00:01:12;8.05;73.41
70214;DHT22;60138;55.808;37.078;2023-04-04T00:03:38;8.07;73.49
70214;DHT22;60138;55.808;37.078;2023-04-04T00:06:04;8.07;73.59
70214;DHT22;60138;55.808;37.078;2023-04-04T00:08:29;8.08;73.73
70214;DHT22;60138;55.808;37.078;2023-04-04T00:10:59;8.06;73.83
70214;DHT22;60138;55.808;37.078;2023-04-04T00:13:25;8.07;73.88
70214;DHT22;60138;55.808;37.078;2023-04-04T00:15:51;8.05;73.90
70214;DHT22;60138;55.808;37.078;2023-04-04T00:18:17;8.08;73.93
70214;DHT22;60138;55.808;37.078;2023-04-04T00:20:42;8.13;73.83
70214;DHT22;60138;55.808;37.078;2023-04-04T00:23:08;8.16;73.77
70214;DHT22;60138;55.808;37.078;2023-04-04T00:25:34;8.22;73.64
70214;DHT22;60138;55.808;37.078;2023-04-04T00:28:00;8.22;73.61
70214;DHT22;60138;55.808;37.078;2023-04-04T00:30:25;8.23;73.41
70214;DHT22;60138;55.808;37.078;2023-04-04T00:32:51;8.19;73.38
70214;DHT22;60138;55.808;37.078;2023-04-04T00:35:17;8.16;73.35
70214;DHT22;60138;55.808;37.078;2023-04-04T00:37:42;8.11;73.31
70214;DHT22;60138;55.808;37.078;2023-04-04T00:40:08;8.06;73.28
70214;DHT22;60138;55.808;37.078;2023-04-04T00:42:34;7.99;73.28
70214;DHT22;60138;55.808;37.078;2023-04-04T00:45:00;7.96;73.42
70214;DHT22;60138;55.808;37.078;2023-04-04T00:47:28;7.92;73.43
70214;DHT22;60138;55.808;37.078;2023-04-04T00:49:54;7.87;73.51
70214;DHT22;60138;55.808;37.078;2023-04-04T00:52:20;7.84;73.60
70214;DHT22;60138;55.808;37.078;2023-04-04T00:54:46;7.82;73.74
70214;DHT22;60138;55.808;37.078;2023-04-04T00:57:11;7.82;73.72
70214;DHT22;60138;55.808;37.078;2023-04-04T00:59:37;7.84;73.83
70214;DHT22;60138;55.808;37.078;2023-04-04T01:02:03;7.89;73.79
70214;DHT22;60138;55.808;37.078;2023-04-04T01:04:29;7.97;73.76
70214;DHT22;60138;55.808;37.078;2023-04-04T01:06:55;8.02;73.67
70214;DHT22;60138;55.808;37.078;2023-04-04T01:09:21;8.06;73.57
70214;DHT22;60138;55.808;37.078;2023-04-04T01:11:48;8.11;73.49
70214;DHT22;60138;55.808;37.078;2023-04-04T01:14:14;8.12;73.51
70214;DHT22;60138;55.808;37.078;2023-04-04T01:16:40;8.16;73.57
70214;DHT22;60138;55.808;37.078;2023-04-04T01:19:08;8.21;73.43
70214;DHT22;60138;55.808;37.078;2023-04-04T01:21:36;8.24;73.32
70214;DHT22;60138;55.808;37.078;2023-04-04T01:24:03;8.19;73.16
70214;DHT22;60138;55.808;37.078;2023-04-04T01:26:44;8.15;73.57
70214;DHT22;60138;55.808;37.078;2023-04-04T01:29:09;8.09;73.70
70214;DHT22;60138;55.808;37.078;2023-04-04T01:36:42;8.11;73.70
70214;DHT22;60138;55.808;37.078;2023-04-04T01:39:42;8.19;73.76
70214;DHT22;60138;55.808;37.078;2023-04-04T01:42:11;8.22;73.43
70214;DHT22;60138;55.808;37.078;2023-04-04T01:44:38;8.27;73.32
70214;DHT22;60138;55.808;37.078;2023-04-04T01:47:07;8.32;73.29
70214;DHT22;60138;55.808;37.078;2023-04-04T01:49:33;8.33;73.25
70214;DHT22;60138;55.808;37.078;2023-04-04T01:51:58;8.36;73.07
70214;DHT22;60138;55.808;37.078;2023-04-04T01:54:25;8.34;73.15
70214;DHT22;60138;55.808;37.078;2023-04-04T01:56:51;8.33;73.32
70214;DHT22;60138;55.808;37.078;2023-04-04T01:59:17;8.33;73.15
70214;DHT22;60138;55.808;37.078;2023-04-04T02:01:42;8.30;73.19
70214;DHT22;60138;55.808;37.078;2023-04-04T02:04:08;8.27;72.94
70214;DHT22;60138;55.808;37.078;2023-04-04T02:06:34;8.27;73.07
70214;DHT22;60138;55.808;37.078;2023-04-04T02:08:59;8.27;72.96
70214;DHT22;60138;55.808;37.078;2023-04-04T02:11:25;8.24;73.15
70214;DHT22;60138;55.808;37.078;2023-04-04T02:13:51;8.24;73.02
70214;DHT22;60138;55.808;37.078;2023-04-04T02:16:18;8.27;73.06
70214;DHT22;60138;55.808;37.078;2023-04-04T02:18:43;8.26;73.15
70214;DHT22;60138;55.808;37.078;2023-04-04T02:21:09;8.26;72.93
70214;DHT22;60138;55.808;37.078;2023-04-04T02:23:35;8.26;72.88
70214;DHT22;60138;55.808;37.078;2023-04-04T02:26:01;8.23;72.90
70214;DHT22;60138;55.808;37.078;2023-04-04T02:28:27;8.20;72.96
70214;DHT22;60138;55.808;37.078;2023-04-04T02:30:53;8.19;73.03
70214;DHT22;60138;55.808;37.078;2023-04-04T02:33:19;8.18;72.89
70214;DHT22;60138;55.808;37.078;2023-04-04T02:35:45;8.16;72.94
70214;DHT22;60138;55.808;37.078;2023-04-04T02:38:11;8.15;72.87
70214;DHT22;60138;55.808;37.078;2023-04-04T02:40:44;8.04;73.47
70214;DHT22;60138;55.808;37.078;2023-04-04T02:43:10;8.01;73.28
70214;DHT22;60138;55.808;37.078;2023-04-04T02:45:37;8.00;73.32
70214;DHT22;60138;55.808;37.078;2023-04-04T02:48:21;8.01;73.36
70214;DHT22;60138;55.808;37.078;2023-04-04T02:50:49;8.02;73.43
70214;DHT22;60138;55.808;37.078;2023-04-04T02:53:15;8.06;73.36
70214;DHT22;60138;55.808;37.078;2023-04-04T02:55:42;8.07;73.24
70214;DHT22;60138;55.808;37.078;2023-04-04T02:58:08;8.06;73.23
70214;DHT22;60138;55.808;37.078;2023-04-04T03:00:34;8.11;73.20
70214;DHT22;60138;55.808;37.078;2023-04-04T03:02:59;8.12;73.14
70214;DHT22;60138;55.808;37.078;2023-04-04T03:05:30;8.14;73.10
70214;DHT22;60138;55.808;37.078;2023-04-04T03:07:57;8.14;73.06
70214;DHT22;60138;55.808;37.078;2023-04-04T03:10:24;8.18;73.06
70214;DHT22;60138;55.808;37.078;2023-04-04T03:12:50;8.21;73.03
70214;DHT22;60138;55.808;37.078;2023-04-04T03:15:16;8.19;73.03
70214;DHT22;60138;55.808;37.078;2023-04-04T03:17:42;8.17;73.14
70214;DHT22;60138;55.808;37.078;2023-04-04T03:20:08;8.11;73.29
70214;DHT22;60138;55.808;37.078;2023-04-04T03:22:34;8.05;73.70
70214;DHT22;60138;55.808;37.078;2023-04-04T03:25:01;8.01;73.55
70214;DHT22;60138;55.808;37.078;2023-04-04T03:27:32;8.01;73.74
70214;DHT22;60138;55.808;37.078;2023-04-04T03:29:58;8.02;73.68
70214;DHT22;60138;55.808;37.078;2023-04-04T03:32:29;8.06;73.58
70214;DHT22;60138;55.808;37.078;2023-04-04T03:34:55;8.11;73.47
70214;DHT22;60138;55.808;37.078;2023-04-04T03:37:20;8.11;73.41
70214;DHT22;60138;55.808;37.078;2023-04-04T03:39:47;8.13;73.69
70214;DHT22;60138;55.808;37.078;2023-04-04T03:42:12;8.09;73.72
70214;DHT22;60138;55.808;37.078;2023-04-04T03:44:41;8.08;74.18
70214;DHT22;60138;55.808;37.078;2023-04-04T03:47:15;8.04;73.58
70214;DHT22;60138;55.808;37.078;2023-04-04T03:49:41;8.00;74.22
70214;DHT22;60138;55.808;37.078;2023-04-04T03:52:07;8.00;74.08
70214;DHT22;60138;55.808;37.078;2023-04-04T03:54:33;8.04;73.96
70214;DHT22;60138;55.808;37.078;2023-04-04T03:56:59;8.07;73.72
70214;DHT22;60138;55.808;37.078;2023-04-04T03:59:25;8.13;73.64
70214;DHT22;60138;55.808;37.078;2023-04-04T04:01:51;8.19;73.81
70214;DHT22;60138;55.808;37.078;2023-04-04T04:04:17;8.19;73.83
70214;DHT22;60138;55.808;37.078;2023-04-04T04:06:43;8.18;73.70
70214;DHT22;60138;55.808;37.078;2023-04-04T04:09:09;8.18;73.69
70214;DHT22;60138;55.808;37.078;2023-04-04T04:11:34;8.18;73.95
70214;DHT22;60138;55.808;37.078;2023-04-04T04:14:00;8.16;73.77
70214;DHT22;60138;55.808;37.078;2023-04-04T04:16:26;8.17;74.05
70214;DHT22;60138;55.808;37.078;2023-04-04T04:18:52;8.14;73.60
70214;DHT22;60138;55.808;37.078;2023-04-04T04:21:29;8.11;73.84
70214;DHT22;60138;55.808;37.078;2023-04-04T04:23:55;8.15;73.73
70214;DHT22;60138;55.808;37.078;2023-04-04T04:26:21;8.18;74.08
70214;DHT22;60138;55.808;37.078;2023-04-04T04:28:47;8.17;74.21
70214;DHT22;60138;55.808;37.078;2023-04-04T04:31:18;8.19;74.04
70214;DHT22;60138;55.808;37.078;2023-04-04T04:33:47;8.18;73.93
70214;DHT22;60138;55.808;37.078;2023-04-04T04:36:14;8.21;73.90
70214;DHT22;60138;55.808;37.078;2023-04-04T04:38:48;8.35;73.88
70214;DHT22;60138;55.808;37.078;2023-04-04T04:41:15;8.41;73.86
70214;DHT22;60138;55.808;37.078;2023-04-04T04:43:44;8.45;74.15
70214;DHT22;60138;55.808;37.078;2023-04-04T04:46:10;8.50;73.84
70214;DHT22;60138;55.808;37.078;2023-04-04T04:48:36;8.58;73.66
70214;DHT22;60138;55.808;37.078;2023-04-04T04:51:02;8.68;73.44
70214;DHT22;60138;55.808;37.078;2023-04-04T04:53:37;8.76;73.22
70214;DHT22;60138;55.808;37.078;2023-04-04T04:56:03;8.86;72.96
70214;DHT22;60138;55.808;37.078;2023-04-04T04:58:29;8.95;72.65
70214;DHT22;60138;55.808;37.078;2023-04-04T05:00:57;9.01;72.42
70214;DHT22;60138;55.808;37.078;2023-04-04T05:03:30;9.09;72.49
70214;DHT22;60138;55.808;37.078;2023-04-04T05:05:56;9.19;72.25
70214;DHT22;60138;55.808;37.078;2023-04-04T05:08:22;9.31;72.15
70214;DHT22;60138;55.808;37.078;2023-04-04T05:11:14;9.39;71.74
70214;DHT22;60138;55.808;37.078;2023-04-04T05:13:40;9.44;71.49
70214;DHT22;60138;55.808;37.078;2023-04-04T05:16:06;9.46;71.51
70214;DHT22;60138;55.808;37.078;2023-04-04T05:18:33;9.44;71.39
70214;DHT22;60138;55.808;37.078;2023-04-04T05:20:59;9.44;71.50
70214;DHT22;60138;55.808;37.078;2023-04-04T05:23:27;9.39;71.26
70214;DHT22;60138;55.808;37.078;2023-04-04T05:25:53;9.37;71.19
70214;DHT22;60138;55.808;37.078;2023-04-04T05:28:21;9.36;71.26
70214;DHT22;60138;55.808;37.078;2023-04-04T05:30:48;9.32;71.33
70214;DHT22;60138;55.808;37.078;2023-04-04T05:33:18;9.31;71.33
70214;DHT22;60138;55.808;37.078;2023-04-04T05:35:54;9.26;71.47
70214;DHT22;60138;55.808;37.078;2023-04-04T05:38:20;9.23;71.18
70214;DHT22;60138;55.808;37.078;2023-04-04T05:40:52;9.23;71.50
70214;DHT22;60138;55.808;37.078;2023-04-04T05:43:18;9.24;71.38
70214;DHT22;60138;55.808;37.078;2023-04-04T05:45:56;9.31;71.32
70214;DHT22;60138;55.808;37.078;2023-04-04T05:48:22;9.35;71.32
70214;DHT22;60138;55.808;37.078;2023-04-04T05:50:51;9.40;71.16
70214;DHT22;60138;55.808;37.078;2023-04-04T05:53:20;9.48;71.27
70214;DHT22;60138;55.808;37.078;2023-04-04T05:55:52;9.57;71.20
70214;DHT22;60138;55.808;37.078;2023-04-04T05:58:19;9.67;71.03
70214;DHT22;60138;55.808;37.078;2023-04-04T06:00:49;9.81;70.90
70214;DHT22;60138;55.808;37.078;2023-04-04T06:03:16;9.97;70.84
70214;DHT22;60138;55.808;37.078;2023-04-04T06:05:42;10.07;70.57
70214;DHT22;60138;55.808;37.078;2023-04-04T06:08:08;10.13;70.64
70214;DHT22;60138;55.808;37.078;2023-04-04T06:10:34;10.19;70.35
70214;DHT22;60138;55.808;37.078;2023-04-04T06:13:00;10.29;70.28
70214;DHT22;60138;55.808;37.078;2023-04-04T06:15:27;10.45;70.01
70214;DHT22;60138;55.808;37.078;2023-04-04T06:17:53;10.60;69.94
70214;DHT22;60138;55.808;37.078;2023-04-04T06:20:19;10.78;69.42
70214;DHT22;60138;55.808;37.078;2023-04-04T06:22:45;10.88;68.90
70214;DHT22;60138;55.808;37.078;2023-04-04T06:25:11;11.01;68.23
70214;DHT22;60138;55.808;37.078;2023-04-04T06:27:39;11.11;68.19
70214;DHT22;60138;55.808;37.078;2023-04-04T06:30:06;11.25;68.07
70214;DHT22;60138;55.808;37.078;2023-04-04T06:32:33;11.26;68.12
70214;DHT22;60138;55.808;37.078;2023-04-04T06:35:01;11.33;68.01
70214;DHT22;60138;55.808;37.078;2023-04-04T06:37:38;11.46;67.67
70214;DHT22;60138;55.808;37.078;2023-04-04T06:40:12;11.52;67.47
70214;DHT22;60138;55.808;37.078;2023-04-04T06:42:46;11.64;67.17
70214;DHT22;60138;55.808;37.078;2023-04-04T06:45:12;11.74;66.29
70214;DHT22;60138;55.808;37.078;2023-04-04T06:47:37;11.87;66.64
70214;DHT22;60138;55.808;37.078;2023-04-04T06:50:04;11.99;65.97
70214;DHT22;60138;55.808;37.078;2023-04-04T06:52:30;11.99;64.56
70214;DHT22;60138;55.808;37.078;2023-04-04T06:54:56;12.07;65.78
70214;DHT22;60138;55.808;37.078;2023-04-04T06:57:21;12.16;64.64
70214;DHT22;60138;55.808;37.078;2023-04-04T06:59:47;12.30;63.81
70214;DHT22;60138;55.808;37.078;2023-04-04T07:02:13;12.28;61.78
70214;DHT22;60138;55.808;37.078;2023-04-04T07:04:38;12.31;63.31
70214;DHT22;60138;55.808;37.078;2023-04-04T07:07:04;12.49;64.49
70214;DHT22;60138;55.808;37.078;2023-04-04T07:09:30;12.71;63.37
70214;DHT22;60138;55.808;37.078;2023-04-04T07:11:55;12.80;63.78
70214;DHT22;60138;55.808;37.078;2023-04-04T07:14:21;12.80;64.08
70214;DHT22;60138;55.808;37.078;2023-04-04T07:16:46;12.76;63.47
70214;DHT22;60138;55.808;37.078;2023-04-04T07:19:12;12.76;59.28
70214;DHT22;60138;55.808;37.078;2023-04-04T07:21:38;12.65;61.29
70214;DHT22;60138;55.808;37.078;2023-04-04T07:24:03;12.64;61.96
70214;DHT22;60138;55.808;37.078;2023-04-04T07:26:29;12.75;62.85
70214;DHT22;60138;55.808;37.078;2023-04-04T07:28:55;12.89;62.89
70214;DHT22;60138;55.808;37.078;2023-04-04T07:31:20;13.04;63.17
70214;DHT22;60138;55.808;37.078;2023-04-04T07:33:46;13.17;61.60
70214;DHT22;60138;55.808;37.078;2023-04-04T07:36:12;13.22;61.13
70214;DHT22;60138;55.808;37.078;2023-04-04T07:38:37;13.22;61.34
70214;DHT22;60138;55.808;37.078;2023-04-04T07:41:03;13.08;61.00
70214;DHT22;60138;55.808;37.078;2023-04-04T07:43:29;12.95;62.12
70214;DHT22;60138;55.808;37.078;2023-04-04T07:45:54;12.94;62.75
70214;DHT22;60138;55.808;37.078;2023-04-04T07:48:20;13.15;61.85
70214;DHT22;60138;55.808;37.078;2023-04-04T07:50:46;13.30;62.15
70214;DHT22;60138;55.808;37.078;2023-04-04T07:53:11;13.48;61.83
70214;DHT22;60138;55.808;37.078;2023-04-04T07:55:37;13.47;61.15
70214;DHT22;60138;55.808;37.078;2023-04-04T07:58:02;13.58;61.35
70214;DHT22;60138;55.808;37.078;2023-04-04T08:00:28;13.70;61.39
70214;DHT22;60138;55.808;37.078;2023-04-04T08:02:54;13.79;60.28
70214;DHT22;60138;55.808;37.078;2023-04-04T08:05:20;13.83;57.41
70214;DHT22;60138;55.808;37.078;2023-04-04T08:07:46;13.70;55.61
70214;DHT22;60138;55.808;37.078;2023-04-04T08:10:12;13.62;57.43
70214;DHT22;60138;55.808;37.078;2023-04-04T08:12:38;13.59;60.07
70214;DHT22;60138;55.808;37.078;2023-04-04T08:15:04;13.73;59.20
70214;DHT22;60138;55.808;37.078;2023-04-04T08:17:30;13.79;60.62
70214;DHT22;60138;55.808;37.078;2023-04-04T08:19:56;13.78;57.73
70214;DHT22;60138;55.808;37.078;2023-04-04T08:22:22;13.77;55.83
70214;DHT22;60138;55.808;37.078;2023-04-04T08:24:48;13.86;59.02
70214;DHT22;60138;55.808;37.078;2023-04-04T08:27:13;14.14;58.16
70214;DHT22;60138;55.808;37.078;2023-04-04T08:29:39;14.11;57.48
70214;DHT22;60138;55.808;37.078;2023-04-04T08:32:05;13.97;57.42
70214;DHT22;60138;55.808;37.078;2023-04-04T08:34:30;13.89;58.25
70214;DHT22;60138;55.808;37.078;2023-04-04T08:36:56;13.96;60.11
70214;DHT22;60138;55.808;37.078;2023-04-04T08:39:22;14.08;59.82
70214;DHT22;60138;55.808;37.078;2023-04-04T08:41:55;14.28;59.29
70214;DHT22;60138;55.808;37.078;2023-04-04T08:44:23;14.44;59.32
70214;DHT22;60138;55.808;37.078;2023-04-04T08:46:50;14.51;59.46
70214;DHT22;60138;55.808;37.078;2023-04-04T08:49:17;14.40;58.80
70214;DHT22;60138;55.808;37.078;2023-04-04T08:51:44;14.49;57.73
70214;DHT22;60138;55.808;37.078;2023-04-04T08:54:12;14.66;57.45
70214;DHT22;60138;55.808;37.078;2023-04-04T08:56:39;14.82;57.89
70214;DHT22;60138;55.808;37.078;2023-04-04T08:59:04;15.00;59.65
70214;DHT22;60138;55.808;37.078;2023-04-04T09:01:30;15.13;57.45
70214;DHT22;60138;55.808;37.078;2023-04-04T09:03:57;15.30;57.43
70214;DHT22;60138;55.808;37.078;2023-04-04T09:06:23;15.43;54.94
70214;DHT22;60138;55.808;37.078;2023-04-04T09:08:50;15.57;55.14
70214;DHT22;60138;55.808;37.078;2023-04-04T09:11:18;15.68;55.09
70214;DHT22;60138;55.808;37.078;2023-04-04T09:13:45;15.74;56.95
70214;DHT22;60138;55.808;37.078;2023-04-04T09:16:13;15.77;55.80
70214;DHT22;60138;55.808;37.078;2023-04-04T09:18:39;15.82;51.37
70214;DHT22;60138;55.808;37.078;2023-04-04T09:21:11;15.75;53.48
70214;DHT22;60138;55.808;37.078;2023-04-04T09:23:37;15.76;53.45
70214;DHT22;60138;55.808;37.078;2023-04-04T09:26:04;15.76;55.74
70214;DHT22;60138;55.808;37.078;2023-04-04T09:28:30;15.74;49.33
70214;DHT22;60138;55.808;37.078;2023-04-04T09:30:59;15.77;54.65
70214;DHT22;60138;55.808;37.078;2023-04-04T09:33:25;15.81;56.31
70214;DHT22;60138;55.808;37.078;2023-04-04T09:35:55;15.99;54.90
70214;DHT22;60138;55.808;37.078;2023-04-04T09:38:26;16.17;54.78
70214;DHT22;60138;55.808;37.078;2023-04-04T09:40:54;16.30;55.52
70214;DHT22;60138;55.808;37.078;2023-04-04T09:43:22;16.37;53.75
70214;DHT22;60138;55.808;37.078;2023-04-04T09:45:49;16.54;53.73
70214;DHT22;60138;55.808;37.078;2023-04-04T09:48:33;16.61;52.80
70214;DHT22;60138;55.808;37.078;2023-04-04T09:51:03;16.57;50.24
70214;DHT22;60138;55.808;37.078;2023-04-04T09:53:29;16.60;53.29
70214;DHT22;60138;55.808;37.078;2023-04-04T09:55:55;16.69;52.54
70214;DHT22;60138;55.808;37.078;2023-04-04T09:58:28;16.74;52.11
70214;DHT22;60138;55.808;37.078;2023-04-04T10:00:56;16.82;53.60
70214;DHT22;60138;55.808;37.078;2023-04-04T10:03:23;16.80;52.74
70214;DHT22;60138;55.808;37.078;2023-04-04T10:06:00;16.84;49.45
70214;DHT22;60138;55.808;37.078;2023-04-04T10:08:28;16.81;50.41
70214;DHT22;60138;55.808;37.078;2023-04-04T10:11:01;16.79;51.84
70214;DHT22;60138;55.808;37.078;2023-04-04T10:13:29;16.85;52.24
70214;DHT22;60138;55.808;37.078;2023-04-04T10:15:57;16.89;47.70
70214;DHT22;60138;55.808;37.078;2023-04-04T10:18:28;16.79;51.29
70214;DHT22;60138;55.808;37.078;2023-04-04T10:20:58;16.71;48.60
70214;DHT22;60138;55.808;37.078;2023-04-04T10:23:24;16.64;52.33
70214;DHT22;60138;55.808;37.078;2023-04-04T10:25:50;16.67;50.75
70214;DHT22;60138;55.808;37.078;2023-04-04T10:28:16;16.77;53.78
70214;DHT22;60138;55.808;37.078;2023-04-04T10:30:48;16.76;50.72
70214;DHT22;60138;55.808;37.078;2023-04-04T10:33:43;16.73;46.72
70214;DHT22;60138;55.808;37.078;2023-04-04T10:36:10;16.32;47.34
70214;DHT22;60138;55.808;37.078;2023-04-04T10:38:44;16.10;49.92
70214;DHT22;60138;55.808;37.078;2023-04-04T10:41:13;16.12;50.86
70214;DHT22;60138;55.808;37.078;2023-04-04T10:43:40;16.26;51.96
70214;DHT22;60138;55.808;37.078;2023-04-04T10:46:14;16.46;51.94
70214;DHT22;60138;55.808;37.078;2023-04-04T10:48:42;16.60;52.07
70214;DHT22;60138;55.808;37.078;2023-04-04T10:51:10;16.67;48.87
70214;DHT22;60138;55.808;37.078;2023-04-04T10:53:37;16.65;44.70
70214;DHT22;60138;55.808;37.078;2023-04-04T10:56:04;16.51;45.22
70214;DHT22;60138;55.808;37.078;2023-04-04T10:58:31;16.43;50.53
70214;DHT22;60138;55.808;37.078;2023-04-04T11:00:58;16.49;49.79
70214;DHT22;60138;55.808;37.078;2023-04-04T11:03:24;16.49;47.92
70214;DHT22;60138;55.808;37.078;2023-04-04T11:05:49;16.59;50.44
70214;DHT22;60138;55.808;37.078;2023-04-04T11:10:43;16.61;47.28
70214;DHT22;60138;55.808;37.078;2023-04-04T11:13:19;16.55;49.25
70214;DHT22;60138;55.808;37.078;2023-04-04T11:16:05;16.34;49.33
70214;DHT22;60138;55.808;37.078;2023-04-04T11:21:01;16.12;50.27
70214;DHT22;60138;55.808;37.078;2023-04-04T11:28:55;16.77;51.46
70214;DHT22;60138;55.808;37.078;2023-04-04T11:31:23;16.95;51.79
70214;DHT22;60138;55.808;37.078;2023-04-04T11:41:56;17.18;50.74
70214;DHT22;60138;55.808;37.078;2023-04-04T11:44:26;17.10;51.33
70214;DHT22;60138;55.808;37.078;2023-04-04T11:49:28;16.79;51.13
70214;DHT22;60138;55.808;37.078;2023-04-04T11:51:55;16.70;51.79
70214;DHT22;60138;55.808;37.078;2023-04-04T11:54:21;16.52;52.11
70214;DHT22;60138;55.808;37.078;2023-04-04T11:56:47;16.40;51.80
70214;DHT22;60138;55.808;37.078;2023-04-04T11:59:16;16.30;52.01
70214;DHT22;60138;55.808;37.078;2023-04-04T12:01:43;16.17;52.72
70214;DHT22;60138;55.808;37.078;2023-04-04T12:04:09;16.03;53.62
70214;DHT22;60138;55.808;37.078;2023-04-04T12:06:36;15.95;53.99
70214;DHT22;60138;55.808;37.078;2023-04-04T12:09:03;15.88;53.80
70214;DHT22;60138;55.808;37.078;2023-04-04T12:11:33;15.86;53.95
70214;DHT22;60138;55.808;37.078;2023-04-04T12:13:59;15.86;53.78
70214;DHT22;60138;55.808;37.078;2023-04-04T12:16:26;15.85;53.72
70214;DHT22;60138;55.808;37.078;2023-04-04T12:18:52;15.80;54.04
70214;DHT22;60138;55.808;37.078;2023-04-04T12:21:18;15.71;53.98
70214;DHT22;60138;55.808;37.078;2023-04-04T12:23:46;15.75;52.55
70214;DHT22;60138;55.808;37.078;2023-04-04T12:26:11;15.87;52.28
70214;DHT22;60138;55.808;37.078;2023-04-04T12:28:38;16.06;51.98
70214;DHT22;60138;55.808;37.078;2023-04-04T12:31:07;16.05;50.78
70214;DHT22;60138;55.808;37.078;2023-04-04T12:33:33;15.98;52.14
70214;DHT22;60138;55.808;37.078;2023-04-04T12:36:00;15.85;51.79
70214;DHT22;60138;55.808;37.078;2023-04-04T12:38:26;15.73;53.30
70214;DHT22;60138;55.808;37.078;2023-04-04T12:40:52;15.85;53.71
70214;DHT22;60138;55.808;37.078;2023-04-04T12:43:18;15.90;53.75
70214;DHT22;60138;55.808;37.078;2023-04-04T12:45:43;15.91;54.06
70214;DHT22;60138;55.808;37.078;2023-04-04T12:48:13;15.89;54.47
70214;DHT22;60138;55.808;37.078;2023-04-04T12:50:56;15.85;54.58
70214;DHT22;60138;55.808;37.078;2023-04-04T12:53:24;15.83;54.81
70214;DHT22;60138;55.808;37.078;2023-04-04T12:55:50;15.82;54.87
70214;DHT22;60138;55.808;37.078;2023-04-04T12:58:18;15.77;54.97
70214;DHT22;60138;55.808;37.078;2023-04-04T13:00:44;15.69;51.18
70214;DHT22;60138;55.808;37.078;2023-04-04T13:03:12;15.49;51.43
70214;DHT22;60138;55.808;37.078;2023-04-04T13:05:38;15.31;49.26
70214;DHT22;60138;55.808;37.078;2023-04-04T13:08:05;15.18;51.51
70214;DHT22;60138;55.808;37.078;2023-04-04T13:13:36;15.07;51.86
70214;DHT22;60138;55.808;37.078;2023-04-04T13:16:03;15.12;54.42
70214;DHT22;60138;55.808;37.078;2023-04-04T13:18:34;15.18;54.91
70214;DHT22;60138;55.808;37.078;2023-04-04T13:21:00;15.32;54.66
70214;DHT22;60138;55.808;37.078;2023-04-04T13:23:26;15.58;53.44
70214;DHT22;60138;55.808;37.078;2023-04-04T13:25:51;15.72;54.35
70214;DHT22;60138;55.808;37.078;2023-04-04T13:28:17;16.02;54.26
70214;DHT22;60138;55.808;37.078;2023-04-04T13:30:43;16.24;51.46
70214;DHT22;60138;55.808;37.078;2023-04-04T13:33:08;16.24;51.75
70214;DHT22;60138;55.808;37.078;2023-04-04T13:35:34;16.32;52.49
70214;DHT22;60138;55.808;37.078;2023-04-04T13:38:00;16.37;52.03
70214;DHT22;60138;55.808;37.078;2023-04-04T13:40:26;16.27;51.73
70214;DHT22;60138;55.808;37.078;2023-04-04T13:42:52;16.06;50.66
70214;DHT22;60138;55.808;37.078;2023-04-04T13:45:18;15.85;51.79
70214;DHT22;60138;55.808;37.078;2023-04-04T13:47:44;15.65;50.55
70214;DHT22;60138;55.808;37.078;2023-04-04T13:50:10;15.41;51.60
70214;DHT22;60138;55.808;37.078;2023-04-04T13:52:36;15.18;52.59
70214;DHT22;60138;55.808;37.078;2023-04-04T13:55:03;14.94;49.24
70214;DHT22;60138;55.808;37.078;2023-04-04T13:57:28;14.85;52.11
70214;DHT22;60138;55.808;37.078;2023-04-04T13:59:54;14.81;51.95
70214;DHT22;60138;55.808;37.078;2023-04-04T14:02:20;14.70;51.28
70214;DHT22;60138;55.808;37.078;2023-04-04T14:04:45;14.60;51.16
70214;DHT22;60138;55.808;37.078;2023-04-04T14:07:11;14.54;52.14
70214;DHT22;60138;55.808;37.078;2023-04-04T14:09:37;14.52;51.57
70214;DHT22;60138;55.808;37.078;2023-04-04T14:12:03;14.40;51.99
70214;DHT22;60138;55.808;37.078;2023-04-04T14:14:28;14.30;54.01
70214;DHT22;60138;55.808;37.078;2023-04-04T14:16:54;14.26;52.85
70214;DHT22;60138;55.808;37.078;2023-04-04T14:19:20;14.22;52.32
70214;DHT22;60138;55.808;37.078;2023-04-04T14:21:46;14.19;51.92
70214;DHT22;60138;55.808;37.078;2023-04-04T14:24:12;14.15;53.17
70214;DHT22;60138;55.808;37.078;2023-04-04T14:26:37;14.15;52.88
70214;DHT22;60138;55.808;37.078;2023-04-04T14:29:03;14.13;52.76
70214;DHT22;60138;55.808;37.078;2023-04-04T14:31:29;14.10;51.94
70214;DHT22;60138;55.808;37.078;2023-04-04T14:33:55;14.07;51.66
70214;DHT22;60138;55.808;37.078;2023-04-04T14:36:20;14.05;53.02
70214;DHT22;60138;55.808;37.078;2023-04-04T14:38:46;14.06;52.99
70214;DHT22;60138;55.808;37.078;2023-04-04T14:41:11;14.01;51.18
70214;DHT22;60138;55.808;37.078;2023-04-04T14:43:37;13.95;52.46
70214;DHT22;60138;55.808;37.078;2023-04-04T14:46:03;13.86;50.38
70214;DHT22;60138;55.808;37.078;2023-04-04T14:48:28;13.81;52.67
70214;DHT22;60138;55.808;37.078;2023-04-04T14:50:54;13.75;51.94
70214;DHT22;60138;55.808;37.078;2023-04-04T14:53:20;13.71;52.40
70214;DHT22;60138;55.808;37.078;2023-04-04T14:55:45;13.67;52.59
70214;DHT22;60138;55.808;37.078;2023-04-04T14:58:11;13.64;51.98
70214;DHT22;60138;55.808;37.078;2023-04-04T15:00:37;13.61;52.05
70214;DHT22;60138;55.808;37.078;2023-04-04T15:03:02;13.52;52.75
70214;DHT22;60138;55.808;37.078;2023-04-04T15:05:28;13.51;53.39
70214;DHT22;60138;55.808;37.078;2023-04-04T15:07:54;13.48;53.36
70214;DHT22;60138;55.808;37.078;2023-04-04T15:10:20;13.45;53.61
70214;DHT22;60138;55.808;37.078;2023-04-04T15:12:46;13.38;53.01
70214;DHT22;60138;55.808;37.078;2023-04-04T15:15:11;13.32;53.90
70214;DHT22;60138;55.808;37.078;2023-04-04T15:17:37;13.25;54.16
70214;DHT22;60138;55.808;37.078;2023-04-04T15:20:03;13.20;54.67
70214;DHT22;60138;55.808;37.078;2023-04-04T15:22:28;13.14;55.00
70214;DHT22;60138;55.808;37.078;2023-04-04T15:24:54;13.08;55.35
70214;DHT22;60138;55.808;37.078;2023-04-04T15:27:20;13.04;55.64
70214;DHT22;60138;55.808;37.078;2023-04-04T15:29:45;13.00;56.04
70214;DHT22;60138;55.808;37.078;2023-04-04T15:32:11;12.95;56.27
70214;DHT22;60138;55.808;37.078;2023-04-04T15:34:37;12.92;56.53
70214;DHT22;60138;55.808;37.078;2023-04-04T15:37:02;12.85;57.22
70214;DHT22;60138;55.808;37.078;2023-04-04T15:39:29;12.80;57.46
70214;DHT22;60138;55.808;37.078;2023-04-04T15:41:55;12.74;58.19
70214;DHT22;60138;55.808;37.078;2023-04-04T15:44:20;12.69;58.74
70214;DHT22;60138;55.808;37.078;2023-04-04T15:46:46;12.63;58.97
70214;DHT22;60138;55.808;37.078;2023-04-04T15:49:12;12.60;58.72
70214;DHT22;60138;55.808;37.078;2023-04-04T15:51:37;12.55;59.73